createdAt,value
2019-05-20T00:01:59.105Z,13.18
2019-05-20T00:04:29.348Z,13.43
2019-05-20T00:06:57.299Z,13.48
2019-05-20T00:09:25.638Z,14.18
2019-05-20T00:11:55.071Z,14.28
2019-05-20T00:14:22.956Z,14.07
2019-05-20T00:16:50.893Z,14.35
2019-05-20T00:19:18.815Z,13.75
2019-05-20T00:21:46.798Z,13.45
2019-05-20T00:24:14.756Z,12.85
2019-05-20T00:26:45.730Z,16.25
2019-05-20T00:29:13.526Z,15.95
2019-05-20T00:31:42.606Z,15.00
2019-05-20T00:34:10.541Z,13.75
2019-05-20T00:36:40.233Z,14.38
2019-05-20T00:39:21.522Z,13.40
2019-05-20T00:41:50.791Z,15.20
2019-05-20T00:44:20.413Z,16.02
2019-05-20T00:46:48.631Z,14.53
2019-05-20T00:49:16.554Z,14.55
2019-05-20T00:51:44.483Z,15.25
2019-05-20T00:54:15.207Z,16.00
2019-05-20T00:56:46.812Z,13.68
2019-05-20T00:59:18.470Z,15.83
2019-05-20T01:01:46.390Z,14.90
2019-05-20T01:04:15.266Z,14.50
2019-05-20T01:06:44.680Z,15.48
2019-05-20T01:09:12.580Z,14.93
2019-05-20T01:11:42.008Z,15.10
2019-05-20T01:14:12.474Z,14.98
2019-05-20T01:16:40.474Z,15.23
2019-05-20T01:19:08.402Z,14.70
2019-05-20T01:21:37.542Z,14.50
2019-05-20T01:24:05.439Z,17.80
2019-05-20T01:26:33.455Z,18.52
2019-05-20T01:29:13.941Z,20.75
2019-05-20T01:31:35.181Z,21.05
2019-05-20T01:34:05.417Z,20.23
2019-05-20T01:36:37.464Z,20.97
2019-05-20T01:39:06.569Z,20.25
2019-05-20T01:41:34.511Z,20.05
2019-05-20T01:44:03.091Z,18.82
2019-05-20T01:46:31.621Z,18.17
2019-05-20T01:49:01.789Z,17.48
2019-05-20T01:51:29.636Z,17.32
2019-05-20T01:53:58.556Z,17.65
2019-05-20T01:56:26.425Z,18.48
2019-05-20T01:58:54.338Z,19.20
2019-05-20T02:01:22.815Z,19.98
2019-05-20T02:03:53.056Z,19.17
2019-05-20T02:06:23.888Z,19.35
2019-05-20T02:08:51.738Z,19.80
2019-05-20T02:11:19.672Z,21.15
2019-05-20T02:13:54.126Z,19.87
2019-05-20T02:16:22.410Z,19.57
2019-05-20T02:18:50.283Z,18.60
2019-05-20T02:21:19.843Z,17.77
2019-05-20T02:23:48.359Z,21.05
2019-05-20T02:26:16.234Z,20.85
2019-05-20T02:28:44.593Z,19.67
2019-05-20T02:31:12.494Z,17.05
2019-05-20T02:33:51.833Z,20.92
2019-05-20T02:36:10.135Z,19.62
2019-05-20T02:38:38.493Z,19.00
2019-05-20T02:41:07.295Z,18.27
2019-05-20T02:43:36.923Z,19.95
2019-05-20T02:46:05.552Z,21.23
2019-05-20T02:48:34.864Z,19.35
2019-05-20T02:51:03.456Z,20.55
2019-05-20T02:53:31.896Z,19.45
2019-05-20T02:56:00.140Z,20.77
2019-05-20T02:58:27.996Z,17.30
2019-05-20T03:00:55.901Z,19.45
2019-05-20T03:03:25.421Z,21.10
2019-05-20T03:05:53.398Z,21.90
2019-05-20T03:08:21.626Z,24.87
2019-05-20T03:10:49.528Z,24.50
2019-05-20T03:13:17.414Z,23.98
2019-05-20T03:15:45.443Z,24.25
2019-05-20T03:18:13.323Z,25.92
2019-05-20T03:20:41.382Z,27.98
2019-05-20T03:23:09.484Z,26.97
2019-05-20T03:25:37.420Z,29.20
2019-05-20T03:28:06.404Z,31.27
2019-05-20T03:30:35.708Z,29.30
2019-05-20T03:33:03.633Z,30.70
2019-05-20T03:35:31.634Z,29.57
2019-05-20T03:38:01.762Z,28.10
2019-05-20T03:40:31.034Z,32.33
2019-05-20T03:42:58.954Z,29.37
2019-05-20T03:45:26.917Z,27.15
2019-05-20T03:47:56.816Z,26.97
2019-05-20T03:50:26.588Z,27.65
2019-05-20T03:52:55.508Z,27.48
2019-05-20T03:55:23.378Z,28.45
2019-05-20T03:57:51.400Z,28.27
2019-05-20T04:00:24.268Z,27.60
2019-05-20T04:02:55.184Z,27.55
2019-05-20T04:05:23.064Z,28.20
2019-05-20T04:07:50.923Z,28.70
2019-05-20T04:10:26.375Z,28.35
2019-05-20T04:12:55.338Z,29.00
2019-05-20T04:15:26.876Z,29.48
2019-05-20T04:17:54.856Z,32.98
2019-05-20T04:20:23.654Z,31.70
2019-05-20T04:22:51.522Z,32.05
2019-05-20T04:25:19.522Z,30.50
2019-05-20T04:27:54.189Z,32.50
2019-05-20T04:30:24.223Z,29.30
2019-05-20T04:32:53.036Z,30.12
2019-05-20T04:35:23.123Z,31.55
2019-05-20T04:37:50.772Z,30.68
2019-05-20T04:40:20.014Z,29.02
2019-05-20T04:42:48.367Z,28.87
2019-05-20T04:45:19.941Z,29.23
2019-05-20T04:47:49.149Z,27.80
2019-05-20T04:50:17.124Z,30.65
2019-05-20T04:52:47.879Z,31.57
2019-05-20T04:55:16.831Z,30.40
2019-05-20T04:57:44.825Z,30.77
2019-05-20T05:00:13.125Z,28.73
2019-05-20T05:02:43.609Z,30.85
2019-05-20T05:05:10.763Z,29.55
2019-05-20T05:07:38.618Z,28.17
2019-05-20T05:10:06.751Z,29.00
2019-05-20T05:12:34.597Z,27.15
2019-05-20T05:15:05.809Z,27.73
2019-05-20T05:17:32.202Z,29.63
2019-05-20T05:20:00.165Z,29.75
2019-05-20T05:22:28.143Z,29.23
2019-05-20T05:24:56.057Z,31.25
2019-05-20T05:27:23.920Z,28.83
2019-05-20T05:29:51.798Z,30.92
2019-05-20T05:32:38.678Z,29.50
2019-05-20T05:35:06.654Z,29.48
2019-05-20T05:37:34.518Z,32.90
2019-05-20T05:40:02.374Z,32.08
2019-05-20T05:42:30.241Z,31.25
2019-05-20T05:44:58.090Z,29.85
2019-05-20T05:47:25.940Z,31.40
2019-05-20T05:49:53.802Z,31.52
2019-05-20T05:52:23.015Z,33.92
2019-05-20T05:54:51.262Z,35.55
2019-05-20T05:57:19.094Z,32.28
2019-05-20T05:59:47.003Z,34.25
2019-05-20T06:02:16.042Z,34.80
2019-05-20T06:04:43.891Z,34.60
2019-05-20T06:07:11.779Z,33.80
2019-05-20T06:09:39.638Z,35.25
2019-05-20T06:12:07.586Z,34.03
2019-05-20T06:14:35.437Z,36.93
2019-05-20T06:17:03.333Z,36.30
2019-05-20T06:19:31.163Z,37.48
2019-05-20T06:21:59.045Z,33.90
2019-05-20T06:24:26.854Z,33.33
2019-05-20T06:26:54.723Z,32.83
2019-05-20T06:29:22.553Z,35.52
2019-05-20T06:31:50.404Z,31.30
2019-05-20T06:34:18.238Z,33.05
2019-05-20T06:36:48.238Z,32.58
2019-05-20T06:39:16.064Z,33.10
2019-05-20T06:41:43.932Z,33.28
2019-05-20T06:44:11.746Z,34.13
2019-05-20T06:46:39.611Z,36.90
2019-05-20T06:49:07.471Z,33.92
2019-05-20T06:51:35.350Z,34.90
2019-05-20T06:54:03.176Z,35.25
2019-05-20T06:56:31.037Z,33.33
2019-05-20T06:58:58.863Z,36.23
2019-05-20T07:01:26.705Z,33.73
2019-05-20T07:03:54.641Z,36.03
2019-05-20T07:06:22.594Z,35.78
2019-05-20T07:08:50.459Z,37.60
2019-05-20T07:11:18.278Z,39.08
2019-05-20T07:13:46.134Z,34.73
2019-05-20T07:16:13.991Z,33.33
2019-05-20T07:18:42.012Z,36.00
2019-05-20T07:21:10.007Z,31.42
2019-05-20T07:23:37.958Z,33.85
2019-05-20T07:26:05.781Z,33.58
2019-05-20T07:28:33.633Z,33.60
2019-05-20T07:31:01.463Z,33.50
2019-05-20T07:33:29.355Z,32.95
2019-05-20T07:35:57.355Z,34.48
2019-05-20T07:38:25.214Z,35.45
2019-05-20T07:40:53.053Z,35.60
2019-05-20T07:43:20.916Z,33.30
2019-05-20T07:45:49.242Z,33.45
2019-05-20T07:48:17.487Z,34.10
2019-05-20T07:50:46.083Z,34.78
2019-05-20T07:53:14.051Z,36.10
2019-05-20T07:55:45.211Z,36.00
2019-05-20T07:58:14.057Z,33.50
2019-05-20T08:00:41.934Z,33.08
2019-05-20T08:03:09.823Z,34.60
2019-05-20T08:05:37.683Z,32.95
2019-05-20T08:08:05.534Z,31.55
2019-05-20T08:10:33.405Z,32.75
2019-05-20T08:13:01.474Z,33.85
2019-05-20T08:15:29.360Z,33.48
2019-05-20T08:17:57.198Z,31.70
2019-05-20T08:20:25.063Z,33.80
2019-05-20T08:22:52.867Z,35.52
2019-05-20T08:25:20.833Z,35.63
2019-05-20T08:27:48.646Z,37.15
2019-05-20T08:30:19.636Z,38.05
2019-05-20T08:32:47.482Z,36.33
2019-05-20T08:35:15.344Z,37.60
2019-05-20T08:37:45.645Z,38.85
2019-05-20T08:40:12.874Z,37.78
2019-05-20T08:42:40.749Z,36.60
2019-05-20T08:45:08.664Z,36.75
2019-05-20T08:47:36.520Z,37.85
2019-05-20T08:50:08.733Z,36.98
2019-05-20T08:52:35.026Z,36.08
2019-05-20T08:55:03.345Z,35.78
2019-05-20T08:57:31.185Z,35.45
2019-05-20T08:59:59.106Z,33.00
2019-05-20T09:02:26.948Z,36.90
2019-05-20T09:04:54.810Z,35.58
2019-05-20T09:07:22.647Z,34.95
2019-05-20T09:09:50.567Z,39.20
2019-05-20T09:12:18.406Z,38.17
2019-05-20T09:14:46.275Z,36.35
2019-05-20T09:17:14.108Z,37.33
2019-05-20T09:19:41.915Z,37.35
2019-05-20T09:22:09.755Z,38.17
2019-05-20T09:24:37.705Z,39.05
2019-05-20T09:27:06.063Z,38.80
2019-05-20T09:29:33.963Z,35.73
2019-05-20T09:32:02.174Z,37.42
2019-05-20T09:34:30.244Z,35.92
2019-05-20T09:36:58.328Z,35.88
2019-05-20T09:39:26.254Z,38.13
2019-05-20T09:41:54.647Z,39.27
2019-05-20T09:44:22.569Z,40.95
2019-05-20T09:46:50.539Z,43.02
2019-05-20T09:49:18.398Z,41.45
2019-05-20T09:51:46.324Z,38.35
2019-05-20T09:54:14.362Z,38.25
2019-05-20T09:56:42.256Z,38.25
2019-05-20T09:59:10.157Z,39.45
2019-05-20T10:01:40.387Z,38.90
2019-05-20T10:04:08.667Z,41.30
2019-05-20T10:06:36.493Z,37.63
2019-05-20T10:09:06.085Z,37.45
2019-05-20T10:11:33.924Z,39.98
2019-05-20T10:14:01.826Z,37.85
2019-05-20T10:16:29.707Z,35.95
2019-05-20T10:18:57.633Z,38.38
2019-05-20T10:21:25.546Z,38.10
2019-05-20T10:23:54.518Z,37.05
2019-05-20T10:26:22.437Z,36.88
2019-05-20T10:28:50.304Z,39.65
2019-05-20T10:31:18.177Z,39.70
2019-05-20T10:33:46.057Z,37.38
2019-05-20T10:36:13.967Z,43.92
2019-05-20T10:38:57.314Z,39.23
2019-05-20T10:41:11.706Z,38.58
2019-05-20T10:43:39.693Z,43.40
2019-05-20T10:46:07.991Z,42.08
2019-05-20T10:48:35.874Z,39.95
2019-05-20T10:51:03.769Z,40.23
2019-05-20T10:53:31.681Z,38.17
2019-05-20T10:55:59.958Z,42.35
2019-05-20T10:58:27.971Z,40.65
2019-05-20T11:01:02.225Z,41.63
2019-05-20T11:03:25.434Z,40.85
2019-05-20T11:05:53.342Z,40.25
2019-05-20T11:08:21.191Z,42.38
2019-05-20T11:10:49.065Z,39.98
2019-05-20T11:13:16.953Z,40.50
2019-05-20T11:15:44.848Z,40.73
2019-05-20T11:18:12.703Z,41.13
2019-05-20T11:20:40.646Z,41.77
2019-05-20T11:23:08.515Z,39.58
2019-05-20T11:25:36.426Z,40.88
2019-05-20T11:28:04.389Z,38.38
2019-05-20T11:30:32.278Z,42.90
2019-05-20T11:33:00.173Z,43.40
2019-05-20T11:35:28.062Z,41.50
2019-05-20T11:37:55.940Z,42.48
2019-05-20T11:40:23.915Z,43.58
2019-05-20T11:42:51.735Z,42.70
2019-05-20T11:45:19.768Z,43.92
2019-05-20T11:47:47.595Z,41.20
2019-05-20T11:50:16.027Z,37.93
2019-05-20T11:52:44.179Z,41.28
2019-05-20T11:55:12.087Z,41.42
2019-05-20T11:57:39.964Z,38.15
2019-05-20T12:00:08.196Z,38.53
2019-05-20T12:02:36.046Z,38.70
2019-05-20T12:05:03.957Z,39.08
2019-05-20T12:07:31.816Z,39.95
2019-05-20T12:09:59.707Z,41.05
2019-05-20T12:12:27.586Z,40.08
2019-05-20T12:14:55.423Z,39.78
2019-05-20T12:17:23.319Z,40.70
2019-05-20T12:19:51.155Z,40.33
2019-05-20T12:22:19.094Z,36.45
2019-05-20T12:24:47.079Z,38.67
2019-05-20T12:27:15.202Z,40.28
2019-05-20T12:29:43.058Z,38.55
2019-05-20T12:32:10.947Z,37.48
2019-05-20T12:34:38.750Z,35.90
2019-05-20T12:37:06.634Z,37.13
2019-05-20T12:39:34.561Z,40.28
2019-05-20T12:42:02.518Z,37.63
2019-05-20T12:44:30.346Z,38.92
2019-05-20T12:46:58.235Z,37.70
2019-05-20T12:49:26.158Z,38.92
2019-05-20T12:51:54.296Z,38.65
2019-05-20T12:54:22.398Z,41.68
2019-05-20T12:56:50.226Z,39.98
2019-05-20T12:59:18.091Z,40.45
2019-05-20T13:01:46.002Z,36.70
2019-05-20T13:04:13.927Z,39.42
2019-05-20T13:06:41.821Z,39.13
2019-05-20T13:09:09.693Z,36.40
2019-05-20T13:11:37.531Z,39.88
2019-05-20T13:14:05.442Z,39.00
2019-05-20T13:16:33.299Z,38.60
2019-05-20T13:19:01.580Z,39.63
2019-05-20T13:21:29.468Z,38.40
2019-05-20T13:23:57.970Z,39.35
2019-05-20T13:26:26.122Z,37.67
2019-05-20T13:28:53.982Z,39.23
2019-05-20T13:31:21.860Z,39.83
2019-05-20T13:33:49.795Z,38.00
2019-05-20T13:36:17.677Z,37.60
2019-05-20T13:38:45.536Z,39.53
2019-05-20T13:41:13.417Z,39.60
2019-05-20T13:43:41.342Z,36.65
2019-05-20T13:46:09.188Z,37.40
2019-05-20T13:48:37.068Z,35.48
2019-05-20T13:51:04.947Z,36.42
2019-05-20T13:53:32.785Z,40.63
2019-05-20T13:56:00.828Z,44.08
2019-05-20T13:58:28.838Z,41.28
2019-05-20T14:00:56.730Z,40.25
2019-05-20T14:03:24.597Z,39.25
2019-05-20T14:05:52.432Z,40.67
2019-05-20T14:08:20.281Z,41.35
2019-05-20T14:11:02.895Z,39.05
2019-05-20T14:13:17.740Z,39.67
2019-05-20T14:15:45.621Z,40.63
2019-05-20T14:18:13.475Z,38.58
2019-05-20T14:20:41.343Z,41.33
2019-05-20T14:23:09.210Z,41.70
2019-05-20T14:25:37.092Z,38.65
2019-05-20T14:28:04.982Z,41.65
2019-05-20T14:30:32.835Z,41.30
2019-05-20T14:33:00.915Z,40.00
2019-05-20T14:35:29.062Z,40.52
2019-05-20T14:37:56.915Z,38.85
2019-05-20T14:40:24.827Z,40.10
2019-05-20T14:42:52.701Z,40.55
2019-05-20T14:45:20.578Z,38.28
2019-05-20T14:47:48.512Z,43.95
2019-05-20T14:50:16.464Z,40.83
2019-05-20T14:52:44.354Z,41.05
2019-05-20T14:55:12.225Z,41.25
2019-05-20T14:57:40.227Z,38.90
2019-05-20T15:00:08.630Z,39.15
2019-05-20T15:02:36.526Z,38.25
2019-05-20T15:05:04.775Z,39.42
2019-05-20T15:07:32.886Z,39.70
2019-05-20T15:10:00.759Z,38.78
2019-05-20T15:12:28.616Z,37.63
2019-05-20T15:14:56.487Z,39.38
2019-05-20T15:17:24.377Z,39.38
2019-05-20T15:19:52.348Z,38.90
2019-05-20T15:22:20.348Z,39.05
2019-05-20T15:24:48.217Z,36.28
2019-05-20T15:27:16.180Z,37.25
2019-05-20T15:29:44.125Z,37.15
2019-05-20T15:32:12.060Z,36.85
2019-05-20T15:34:39.927Z,36.45
2019-05-20T15:37:07.796Z,39.95
2019-05-20T15:39:35.792Z,37.03
2019-05-20T15:42:03.732Z,37.83
2019-05-20T15:44:31.776Z,39.08
2019-05-20T15:46:59.735Z,37.73
2019-05-20T15:49:27.597Z,37.78
2019-05-20T15:51:55.593Z,36.70
2019-05-20T15:54:23.523Z,37.00
2019-05-20T15:56:51.412Z,37.85
2019-05-20T15:59:19.278Z,36.75
2019-05-20T16:01:47.187Z,37.85
2019-05-20T16:04:15.091Z,38.42
2019-05-20T16:06:42.973Z,36.40
2019-05-20T16:09:10.911Z,38.55
2019-05-20T16:11:38.952Z,36.40
2019-05-20T16:14:06.875Z,37.35
2019-05-20T16:16:34.812Z,34.53
2019-05-20T16:19:04.619Z,37.15
2019-05-20T16:21:32.498Z,36.20
2019-05-20T16:24:00.383Z,34.45
2019-05-20T16:26:30.030Z,35.30
2019-05-20T16:28:57.880Z,36.35
2019-05-20T16:31:29.156Z,34.38
2019-05-20T16:33:59.601Z,36.65
2019-05-20T16:36:28.695Z,37.50
2019-05-20T16:39:15.746Z,34.30
2019-05-20T16:41:43.664Z,35.30
2019-05-20T16:44:11.595Z,36.03
2019-05-20T16:46:39.538Z,37.33
2019-05-20T16:49:09.507Z,32.73
2019-05-20T16:51:37.456Z,35.68
2019-05-20T16:54:07.424Z,35.35
2019-05-20T16:56:36.756Z,33.78
2019-05-20T16:59:06.242Z,36.50
2019-05-20T17:01:45.889Z,33.90
2019-05-20T17:04:04.284Z,32.60
2019-05-20T17:06:32.288Z,34.78
2019-05-20T17:09:01.524Z,34.50
2019-05-20T17:11:29.573Z,36.20
2019-05-20T17:13:57.907Z,32.98
2019-05-20T17:16:26.456Z,35.40
2019-05-20T17:18:54.353Z,35.30
2019-05-20T17:21:22.724Z,34.05
2019-05-20T17:23:50.649Z,35.60
2019-05-20T17:26:20.124Z,32.08
2019-05-20T17:28:50.962Z,35.15
2019-05-20T17:31:21.189Z,35.25
2019-05-20T17:33:51.591Z,32.63
2019-05-20T17:36:19.674Z,33.33
2019-05-20T17:38:49.605Z,33.90
2019-05-20T17:41:17.963Z,33.35
2019-05-20T17:43:46.522Z,33.78
2019-05-20T17:46:14.834Z,34.58
2019-05-20T17:48:44.713Z,32.50
2019-05-20T17:51:13.493Z,31.50
2019-05-20T17:53:41.472Z,28.42
2019-05-20T17:56:09.534Z,29.80
2019-05-20T17:58:37.531Z,27.80
2019-05-20T18:01:15.301Z,28.42
2019-05-20T18:03:38.063Z,29.60
2019-05-20T18:06:06.132Z,30.15
2019-05-20T18:08:36.362Z,31.12
2019-05-20T18:11:05.711Z,30.32
2019-05-20T18:13:33.807Z,31.20
2019-05-20T18:16:02.792Z,30.92
2019-05-20T18:18:30.799Z,32.50
2019-05-20T18:20:59.979Z,33.45
2019-05-20T18:23:28.980Z,34.98
2019-05-20T18:25:56.961Z,33.42
2019-05-20T18:28:24.951Z,34.83
2019-05-20T18:30:56.556Z,37.65
2019-05-20T18:33:25.602Z,36.28
2019-05-20T18:35:54.166Z,36.90
2019-05-20T18:38:23.574Z,37.93
2019-05-20T18:40:51.489Z,37.80
2019-05-20T18:43:19.521Z,38.28
2019-05-20T18:45:47.434Z,37.35
2019-05-20T18:48:17.731Z,37.10
2019-05-20T18:50:45.795Z,37.70
2019-05-20T18:53:16.469Z,36.08
2019-05-20T18:55:44.439Z,38.78
2019-05-20T18:58:12.402Z,41.10
2019-05-20T19:00:40.307Z,39.10
2019-05-20T19:03:08.273Z,39.40
2019-05-20T19:05:36.199Z,39.05
2019-05-20T19:08:04.182Z,40.12
2019-05-20T19:10:32.112Z,42.48
2019-05-20T19:13:00.021Z,38.33
2019-05-20T19:15:27.912Z,43.98
2019-05-20T19:17:57.181Z,43.87
2019-05-20T19:20:26.208Z,38.78
2019-05-20T19:22:54.141Z,41.45
2019-05-20T19:25:22.111Z,40.95
2019-05-20T19:27:50.551Z,40.45
2019-05-20T19:30:18.900Z,38.53
2019-05-20T19:32:46.853Z,42.40
2019-05-20T19:35:14.743Z,42.83
2019-05-20T19:37:42.669Z,39.63
2019-05-20T19:40:11.882Z,41.02
2019-05-20T19:42:39.811Z,39.33
2019-05-20T19:45:08.203Z,40.75
2019-05-20T19:47:36.037Z,41.08
2019-05-20T19:50:07.264Z,41.65
2019-05-20T19:52:35.240Z,41.10
2019-05-20T19:55:03.178Z,39.67
2019-05-20T19:57:31.133Z,42.15
2019-05-20T19:59:59.151Z,41.05
2019-05-20T20:02:27.062Z,37.42
2019-05-20T20:04:56.003Z,40.40
2019-05-20T20:07:23.991Z,39.85
2019-05-20T20:09:51.972Z,41.92
2019-05-20T20:12:20.356Z,43.05
2019-05-20T20:14:54.732Z,44.20
2019-05-20T20:17:22.903Z,40.83
2019-05-20T20:19:50.840Z,43.05
2019-05-20T20:22:20.371Z,42.33
2019-05-20T20:24:50.873Z,43.58
2019-05-20T20:27:18.882Z,42.15
2019-05-20T20:29:46.777Z,39.45
2019-05-20T20:32:17.201Z,39.88
2019-05-20T20:34:45.218Z,38.98
2019-05-20T20:37:13.170Z,41.05
2019-05-20T20:39:43.060Z,40.30
2019-05-20T20:42:11.176Z,40.17
2019-05-20T20:44:39.090Z,40.48
2019-05-20T20:47:07.039Z,38.67
2019-05-20T20:49:34.987Z,39.75
2019-05-20T20:52:04.790Z,38.28
2019-05-20T20:54:35.793Z,37.05
2019-05-20T20:57:04.203Z,38.70
2019-05-20T20:59:32.292Z,38.20
2019-05-20T21:02:00.770Z,35.10
2019-05-20T21:04:30.000Z,36.73
2019-05-20T21:07:00.137Z,36.75
2019-05-20T21:09:29.023Z,35.30
2019-05-20T21:11:58.667Z,38.45
2019-05-20T21:14:26.694Z,35.52
2019-05-20T21:16:54.933Z,36.95
2019-05-20T21:19:24.476Z,34.92
2019-05-20T21:21:52.436Z,33.53
2019-05-20T21:24:22.333Z,31.42
2019-05-20T21:26:51.060Z,33.15
2019-05-20T21:29:19.065Z,34.10
2019-05-20T21:31:49.078Z,34.30
2019-05-20T21:34:17.274Z,34.35
2019-05-20T21:36:48.160Z,33.67
2019-05-20T21:39:14.924Z,35.23
2019-05-20T21:41:44.832Z,33.95
2019-05-20T21:44:15.068Z,32.65
2019-05-20T21:47:10.401Z,32.30
2019-05-20T21:49:38.323Z,32.58
2019-05-20T21:52:06.825Z,32.73
2019-05-20T21:54:34.766Z,30.90
2019-05-20T21:57:02.647Z,30.75
2019-05-20T21:59:31.782Z,28.17
2019-05-20T22:02:00.158Z,26.97
2019-05-20T22:04:31.243Z,28.52
2019-05-20T22:06:59.562Z,26.55
2019-05-20T22:09:27.513Z,26.60
2019-05-20T22:11:57.404Z,26.82
2019-05-20T22:14:26.614Z,24.23
2019-05-20T22:16:54.593Z,25.77
2019-05-20T22:19:22.584Z,24.37
2019-05-20T22:21:56.552Z,23.90
2019-05-20T22:24:26.640Z,23.95
2019-05-20T22:26:54.507Z,24.55
2019-05-20T22:29:23.988Z,24.07
2019-05-20T22:31:51.896Z,23.05
2019-05-20T22:34:21.874Z,23.10
2019-05-20T22:36:49.772Z,23.62
2019-05-20T22:39:17.800Z,24.02
2019-05-20T22:41:46.092Z,23.10
2019-05-20T22:44:14.067Z,26.40
2019-05-20T22:46:42.598Z,25.95
2019-05-20T22:49:10.478Z,25.00
2019-05-20T22:51:40.648Z,28.10
2019-05-20T22:54:10.882Z,28.38
2019-05-20T22:56:39.003Z,27.35
2019-05-20T22:59:07.068Z,26.12
2019-05-20T23:01:36.383Z,27.05
2019-05-20T23:04:05.445Z,27.75
2019-05-20T23:06:34.104Z,27.87
2019-05-20T23:09:02.732Z,27.30
2019-05-20T23:11:30.807Z,27.73
2019-05-20T23:14:00.355Z,30.27
2019-05-20T23:16:29.554Z,27.55
2019-05-20T23:18:57.537Z,30.48
2019-05-20T23:21:30.249Z,28.70
2019-05-20T23:23:58.157Z,27.67
2019-05-20T23:26:29.718Z,28.55
2019-05-20T23:29:04.658Z,31.60
2019-05-20T23:31:32.773Z,30.25
2019-05-20T23:34:12.150Z,29.50
2019-05-20T23:36:31.900Z,28.83
2019-05-20T23:38:59.784Z,29.50
2019-05-20T23:41:27.763Z,28.60
2019-05-20T23:43:55.694Z,30.70
2019-05-20T23:46:23.704Z,28.85
2019-05-20T23:48:53.585Z,28.75
2019-05-20T23:51:21.466Z,29.50
2019-05-20T23:53:49.394Z,31.80
2019-05-20T23:56:17.787Z,31.40
2019-05-20T23:58:46.249Z,30.32
